Time;durP1;ratioP1;P1;durP2;ratioP2;P2;SDS_P1;SDS_P2;PMS_P1;PMS_P2;Temp;Humidity;BMP_temperature;BMP_pressure;BME280_temperature;BME280_humidity;BME280_pressure;Samples;Min_cycle;Max_cycle;Signal;HPM_P1;HPM_P2
2023/09/17 00:01:33;;;;;;;5.70;4.93;;;;;;;20.57;92.30;97941.75;4955428;28;20237;-80
2023/09/17 00:04:00;;;;;;;5.50;4.90;;;;;;;20.46;93.81;97939.41;4955642;28;20212;-78
2023/09/17 00:06:27;;;;;;;6.20;5.13;;;;;;;20.35;94.39;97953.19;4955966;28;20218;-78
2023/09/17 00:08:53;;;;;;;7.20;5.80;;;;;;;20.23;95.33;97949.19;4955934;28;20223;-77
2023/09/17 00:11:20;;;;;;;6.13;5.27;;;;;;;20.10;96.45;97942.66;4954966;28;20238;-78
2023/09/17 00:13:47;;;;;;;6.53;5.47;;;;;;;19.96;97.99;97952.22;4955939;28;20282;-78
2023/09/17 00:16:14;;;;;;;6.20;5.47;;;;;;;19.83;99.18;97957.25;4955361;28;20215;-77
2023/09/17 00:18:41;;;;;;;6.70;5.33;;;;;;;19.73;100.00;97963.78;4955230;28;20686;-77
2023/09/17 00:21:08;;;;;;;7.53;5.80;;;;;;;19.68;100.00;97964.28;4955314;28;20231;-79
2023/09/17 00:23:34;;;;;;;6.33;5.73;;;;;;;19.64;100.00;97959.41;4955230;28;20218;-77
2023/09/17 00:26:00;;;;;;;7.73;5.93;;;;;;;19.60;100.00;97960.75;4955638;28;20215;-80
2023/09/17 00:28:27;;;;;;;6.50;5.63;;;;;;;19.55;100.00;97963.94;4955341;28;20211;-78
2023/09/17 00:30:55;;;;;;;6.07;5.40;;;;;;;19.48;100.00;97957.56;4955167;28;20238;-78
2023/09/17 00:33:23;;;;;;;7.83;6.23;;;;;;;19.36;100.00;97955.34;4955019;28;20765;-80
2023/09/17 00:35:49;;;;;;;6.40;5.77;;;;;;;19.28;100.00;97958.03;4955427;28;20212;-80
2023/09/17 00:38:15;;;;;;;6.80;5.77;;;;;;;19.21;100.00;97949.78;4955684;28;20214;-78
2023/09/17 00:40:42;;;;;;;6.90;5.57;;;;;;;19.17;100.00;97958.28;4955198;28;20242;-79
2023/09/17 00:43:08;;;;;;;7.50;6.20;;;;;;;19.19;100.00;97943.72;4955085;28;20211;-80
2023/09/17 00:45:36;;;;;;;8.17;6.40;;;;;;;19.15;100.00;97949.59;4955492;28;20225;-78
2023/09/17 00:48:04;;;;;;;7.33;6.40;;;;;;;19.12;100.00;97945.41;4954900;28;20325;-77
2023/09/17 00:50:33;;;;;;;7.60;6.13;;;;;;;19.08;100.00;97944.03;4954579;28;20219;-80
2023/09/17 00:53:00;;;;;;;7.10;6.17;;;;;;;19.02;100.00;97944.69;4955380;28;20698;-80
2023/09/17 00:55:29;;;;;;;6.97;6.03;;;;;;;18.97;100.00;97940.81;4955371;28;20212;-80
2023/09/17 00:57:55;;;;;;;6.60;5.37;;;;;;;18.92;100.00;97944.00;4954545;28;20222;-80
2023/09/17 01:00:23;;;;;;;5.90;4.90;;;;;;;18.88;100.00;97942.63;4955074;28;20218;-79
2023/09/17 01:02:50;;;;;;;6.83;5.27;;;;;;;18.82;100.00;97937.94;4955356;28;20207;-79
2023/09/17 01:05:17;;;;;;;6.07;5.40;;;;;;;18.78;100.00;97935.75;4954884;28;20215;-79
2023/09/17 01:07:45;;;;;;;5.67;4.97;;;;;;;18.74;100.00;97937.91;4955419;28;20217;-79
2023/09/17 01:10:13;;;;;;;6.27;5.57;;;;;;;18.74;100.00;97943.25;4954661;28;20219;-79
2023/09/17 01:12:41;;;;;;;6.20;5.30;;;;;;;18.72;100.00;97937.19;4955053;28;20595;-79
2023/09/17 01:15:09;;;;;;;6.30;5.67;;;;;;;18.72;100.00;97941.75;4954967;28;20218;-79
2023/09/17 01:17:35;;;;;;;6.00;5.40;;;;;;;18.69;100.00;97945.56;4954942;28;20262;-79
2023/09/17 01:20:07;;;;;;;6.10;5.07;;;;;;;18.67;100.00;97950.25;4954324;28;20211;-79
2023/09/17 01:22:44;;;;;;;6.70;5.50;;;;;;;18.73;100.00;97963.00;4954393;28;20232;-79
2023/09/17 01:25:19;;;;;;;8.77;6.10;;;;;;;18.78;100.00;97966.00;4954708;28;20561;-79
2023/09/17 01:27:48;;;;;;;6.27;5.57;;;;;;;18.79;100.00;97981.09;4954934;28;20221;-79
2023/09/17 01:30:16;;;;;;;6.80;5.70;;;;;;;18.72;100.00;97963.97;4954841;28;20302;-79
2023/09/17 01:32:42;;;;;;;6.10;5.50;;;;;;;18.70;100.00;97955.28;4954307;28;20239;-79
2023/09/17 01:35:10;;;;;;;6.63;5.73;;;;;;;18.63;100.00;97959.59;4954846;28;20215;-79
2023/09/17 01:37:41;;;;;;;8.40;5.80;;;;;;;18.64;100.00;97958.59;4953838;28;20290;-77
2023/09/17 01:40:11;;;;;;;6.20;5.60;;;;;;;18.68;100.00;97956.44;4953846;28;20551;-79
2023/09/17 01:42:40;;;;;;;7.13;5.63;;;;;;;18.69;100.00;97958.97;4953954;28;20676;-79
2023/09/17 01:45:10;;;;;;;6.23;5.33;;;;;;;18.72;100.00;97961.31;4954440;28;20218;-79
2023/09/17 01:47:38;;;;;;;6.80;5.23;;;;;;;18.80;100.00;97972.06;4954630;28;20246;-79
2023/09/17 01:50:06;;;;;;;5.90;5.13;;;;;;;18.87;100.00;97983.81;4954754;28;20218;-79
2023/09/17 01:52:33;;;;;;;6.03;5.17;;;;;;;18.93;100.00;97983.16;4954195;28;20314;-79
2023/09/17 01:55:02;;;;;;;6.27;5.67;;;;;;;18.99;100.00;97979.00;4954620;28;20215;-79
2023/09/17 01:57:28;;;;;;;6.87;5.93;;;;;;;19.04;100.00;97974.84;4957721;28;20211;-77
2023/09/17 01:59:55;;;;;;;6.90;5.93;;;;;;;19.09;100.00;97980.53;4957338;28;20230;-77
2023/09/17 02:02:23;;;;;;;7.17;5.83;;;;;;;19.06;100.00;97978.19;4956911;28;20245;-77
2023/09/17 02:04:50;;;;;;;5.90;5.33;;;;;;;19.08;100.00;97981.53;4957491;28;20239;-79
2023/09/17 02:07:16;;;;;;;5.93;5.20;;;;;;;19.13;100.00;97984.56;4957921;28;20705;-80
2023/09/17 02:09:43;;;;;;;6.13;5.53;;;;;;;19.14;100.00;97972.84;4958420;28;20210;-79
2023/09/17 02:12:09;;;;;;;7.13;5.50;;;;;;;19.14;100.00;97980.88;4957741;28;20254;-79
2023/09/17 02:14:36;;;;;;;5.80;5.20;;;;;;;19.16;100.00;97972.69;4958618;28;20211;-79
2023/09/17 02:17:03;;;;;;;5.77;5.10;;;;;;;19.18;100.00;97981.41;4958329;28;20225;-79
2023/09/17 02:19:33;;;;;;;5.80;5.07;;;;;;;19.20;100.00;97974.91;4958753;28;20575;-79
2023/09/17 02:21:59;;;;;;;6.07;5.47;;;;;;;19.22;100.00;97966.72;4957970;28;20242;-79
2023/09/17 02:24:26;;;;;;;6.17;5.13;;;;;;;19.25;100.00;97967.22;4958347;28;20218;-79
2023/09/17 02:26:52;;;;;;;5.97;5.37;;;;;;;19.23;100.00;97963.88;4958136;28;20581;-79
2023/09/17 02:29:19;;;;;;;6.57;5.30;;;;;;;19.25;100.00;97974.41;4958252;28;20215;-79
2023/09/17 02:31:45;;;;;;;6.00;5.40;;;;;;;19.21;100.00;97971.22;4957209;28;20235;-80
2023/09/17 02:34:12;;;;;;;5.60;5.07;;;;;;;19.21;100.00;97978.44;4957610;28;20218;-78
2023/09/17 02:36:40;;;;;;;6.53;5.60;;;;;;;19.21;100.00;97979.25;4957543;28;20215;-78
2023/09/17 02:39:08;;;;;;;7.07;5.90;;;;;;;19.14;100.00;97975.53;4957499;28;20284;-80
2023/09/17 02:41:34;;;;;;;6.73;6.03;;;;;;;19.09;100.00;97977.03;4956877;29;20234;-78
2023/09/17 02:44:02;;;;;;;8.87;5.77;;;;;;;19.05;100.00;97965.81;4957405;28;20212;-78
2023/09/17 02:46:29;;;;;;;6.30;5.27;;;;;;;19.00;100.00;97964.59;4957080;28;20215;-78
2023/09/17 02:48:55;;;;;;;6.27;5.30;;;;;;;18.92;100.00;97964.56;4957234;28;20578;-80
2023/09/17 02:51:22;;;;;;;6.40;5.47;;;;;;;18.88;100.00;97968.56;4957022;28;20236;-78
2023/09/17 02:53:50;;;;;;;5.63;5.03;;;;;;;18.79;100.00;97967.72;4957018;28;20242;-78
2023/09/17 02:56:16;;;;;;;6.37;5.73;;;;;;;18.71;100.00;97974.88;4956820;28;20693;-80
2023/09/17 02:58:43;;;;;;;6.57;5.87;;;;;;;18.67;100.00;97977.03;4956561;28;20230;-78
2023/09/17 03:01:17;;;;;;;7.63;5.90;;;;;;;18.61;100.00;97991.06;4956413;28;20235;-80
2023/09/17 03:03:44;;;;;;;6.57;5.37;;;;;;;18.61;100.00;97990.19;4956746;28;20214;-78
2023/09/17 03:06:11;;;;;;;7.27;5.83;;;;;;;18.58;100.00;97983.31;4956495;28;20207;-78
2023/09/17 03:08:41;;;;;;;6.17;5.40;;;;;;;18.54;100.00;97983.81;4956555;28;20219;-78
2023/09/17 03:11:13;;;;;;;6.77;5.70;;;;;;;18.55;100.00;97993.50;4956156;28;20234;-78
2023/09/17 03:13:40;;;;;;;7.23;5.77;;;;;;;18.58;100.00;97995.84;4956399;28;20706;-78
2023/09/17 03:16:07;;;;;;;6.83;5.47;;;;;;;18.56;100.00;97989.84;4956649;28;20218;-77
2023/09/17 03:18:34;;;;;;;6.60;5.80;;;;;;;18.56;100.00;97996.03;4956360;28;20313;-77
2023/09/17 03:21:00;;;;;;;7.53;6.17;;;;;;;18.59;100.00;97995.72;4956079;28;20569;-77
2023/09/17 03:23:29;;;;;;;6.80;5.93;;;;;;;18.55;100.00;97991.69;4956451;28;20303;-77
2023/09/17 03:25:56;;;;;;;6.30;5.40;;;;;;;18.50;100.00;97988.66;4956371;28;20222;-77
2023/09/17 03:28:24;;;;;;;6.87;5.40;;;;;;;18.44;100.00;97985.75;4956459;28;20211;-78
2023/09/17 03:30:50;;;;;;;6.17;5.50;;;;;;;18.35;100.00;97987.53;4956042;28;20238;-80
2023/09/17 03:33:17;;;;;;;6.73;5.83;;;;;;;18.30;100.00;97989.81;4956387;28;20227;-80
2023/09/17 03:35:43;;;;;;;9.23;6.40;;;;;;;18.26;100.00;97996.47;4956160;28;20215;-78
2023/09/17 03:38:09;;;;;;;7.53;5.77;;;;;;;18.26;100.00;97992.97;4955985;28;20238;-78
2023/09/17 03:40:36;;;;;;;8.17;5.83;;;;;;;18.24;100.00;97993.09;4955897;28;20223;-77
2023/09/17 03:43:03;;;;;;;7.40;6.60;;;;;;;18.19;100.00;97991.91;4956136;28;20231;-77
2023/09/17 03:45:31;;;;;;;6.17;5.57;;;;;;;18.11;100.00;97995.34;4956365;28;20659;-78
2023/09/17 03:47:58;;;;;;;6.33;5.67;;;;;;;18.08;100.00;97995.69;4956016;28;20207;-78
2023/09/17 03:50:24;;;;;;;9.27;6.57;;;;;;;18.06;100.00;97992.34;4955609;28;20218;-78
2023/09/17 03:52:53;;;;;;;7.53;6.00;;;;;;;17.99;100.00;97991.25;4955739;28;20247;-78
2023/09/17 03:55:21;;;;;;;7.03;5.77;;;;;;;17.92;100.00;97990.19;4956060;28;20247;-78
2023/09/17 03:57:47;;;;;;;6.20;5.60;;;;;;;17.85;100.00;97997.16;4955864;28;20215;-78
2023/09/17 04:00:15;;;;;;;6.50;5.80;;;;;;;17.82;100.00;97988.59;4955741;28;20211;-78
2023/09/17 04:02:43;;;;;;;6.37;5.67;;;;;;;17.78;100.00;97987.22;4954948;28;20241;-78
2023/09/17 04:05:12;;;;;;;7.70;5.83;;;;;;;17.76;100.00;97990.06;4955497;28;20230;-78
2023/09/17 04:07:40;;;;;;;5.80;5.20;;;;;;;17.73;100.00;97987.69;4955394;28;20590;-78
2023/09/17 04:10:08;;;;;;;6.50;5.60;;;;;;;17.70;100.00;97988.03;4955542;28;20212;-78
2023/09/17 04:12:35;;;;;;;6.67;5.60;;;;;;;17.72;100.00;97987.84;4955036;28;20603;-78
2023/09/17 04:15:07;;;;;;;7.17;5.70;;;;;;;17.64;100.00;97980.63;4955068;28;20258;-78
2023/09/17 04:17:34;;;;;;;7.03;6.17;;;;;;;17.60;100.00;97983.72;4954864;28;20214;-78
2023/09/17 04:20:03;;;;;;;7.30;6.50;;;;;;;17.59;100.00;97982.91;4954939;28;20216;-78
2023/09/17 04:22:29;;;;;;;7.50;5.80;;;;;;;17.55;100.00;97975.34;4954630;28;20270;-78
2023/09/17 04:24:56;;;;;;;7.27;6.37;;;;;;;17.53;100.00;97978.16;4955328;28;20222;-78
2023/09/17 04:27:22;;;;;;;7.00;6.23;;;;;;;17.54;100.00;97973.63;4955141;28;20238;-78
2023/09/17 04:29:49;;;;;;;7.37;6.43;;;;;;;17.55;100.00;97976.16;4955397;28;20222;-78
2023/09/17 04:32:16;;;;;;;7.23;6.20;;;;;;;17.54;100.00;97974.50;4954693;28;20235;-78
2023/09/17 04:34:42;;;;;;;8.57;6.70;;;;;;;17.53;100.00;97983.50;4954874;28;20219;-78
2023/09/17 04:37:10;;;;;;;6.47;5.80;;;;;;;17.50;100.00;97983.78;4955122;28;20269;-78
2023/09/17 04:39:37;;;;;;;6.73;5.73;;;;;;;17.46;100.00;97986.94;4954634;28;20219;-78
2023/09/17 04:42:05;;;;;;;6.77;5.67;;;;;;;17.43;100.00;97997.94;4954473;28;20738;-78
2023/09/17 04:44:32;;;;;;;6.37;5.33;;;;;;;17.43;100.00;97997.94;4954872;28;20245;-78
2023/09/17 04:46:58;;;;;;;7.60;6.70;;;;;;;17.35;100.00;97992.47;4954823;28;20206;-78
2023/09/17 04:49:25;;;;;;;7.00;6.20;;;;;;;17.33;100.00;97997.97;4954756;28;20207;-78
2023/09/17 04:51:51;;;;;;;7.93;6.30;;;;;;;17.24;100.00;97990.84;4954618;28;20231;-78
2023/09/17 04:54:20;;;;;;;7.90;6.47;;;;;;;17.20;100.00;97997.47;4954593;28;20231;-78
2023/09/17 04:56:46;;;;;;;8.40;6.90;;;;;;;17.19;100.00;98005.66;4954783;28;20318;-78
2023/09/17 04:59:13;;;;;;;7.47;6.20;;;;;;;17.17;100.00;98007.63;4954427;28;20219;-78
2023/09/17 05:01:39;;;;;;;9.20;6.10;;;;;;;17.19;100.00;97995.81;4953835;28;20242;-78
2023/09/17 05:04:06;;;;;;;7.13;6.17;;;;;;;17.19;100.00;98013.66;4954432;28;20216;-78
2023/09/17 05:06:32;;;;;;;7.20;6.00;;;;;;;17.17;100.00;98012.97;4954809;28;20215;-78
2023/09/17 05:08:59;;;;;;;7.30;6.40;;;;;;;17.16;100.00;98014.81;4954582;28;20222;-78
2023/09/17 05:11:27;;;;;;;7.10;5.73;;;;;;;17.19;100.00;98011.81;4953922;28;20316;-78
2023/09/17 05:13:53;;;;;;;6.97;6.17;;;;;;;17.23;100.00;98018.56;4954262;28;20318;-78
2023/09/17 05:16:19;;;;;;;7.47;6.33;;;;;;;17.25;100.00;98021.91;4954232;28;20216;-78
2023/09/17 05:18:47;;;;;;;7.73;6.37;;;;;;;17.28;100.00;98021.63;4954432;28;20214;-78
2023/09/17 05:21:14;;;;;;;7.37;6.33;;;;;;;17.32;100.00;98030.19;4953873;28;20227;-78
2023/09/17 05:23:40;;;;;;;6.67;5.97;;;;;;;17.36;100.00;98021.72;4954162;28;20576;-78
2023/09/17 05:26:07;;;;;;;8.17;6.23;;;;;;;17.37;100.00;98028.75;4954117;28;20211;-78
2023/09/17 05:28:35;;;;;;;6.73;6.03;;;;;;;17.40;100.00;98020.47;4954093;28;20215;-78
2023/09/17 05:31:01;;;;;;;6.57;5.60;;;;;;;17.45;100.00;98028.88;4952693;28;20242;-78
2023/09/17 05:33:28;;;;;;;7.40;6.23;;;;;;;17.45;100.00;98031.53;4954001;28;20231;-78
2023/09/17 05:35:56;;;;;;;7.03;5.67;;;;;;;17.49;100.00;98030.22;4954022;28;20547;-78
2023/09/17 05:38:23;;;;;;;7.37;6.07;;;;;;;17.53;100.00;98030.75;4954407;28;20238;-77
2023/09/17 05:40:49;;;;;;;7.77;6.57;;;;;;;17.61;100.00;98036.22;4953430;28;20582;-78
2023/09/17 05:43:16;;;;;;;6.67;5.90;;;;;;;17.64;100.00;98036.75;4953601;28;20214;-78
2023/09/17 05:45:44;;;;;;;7.60;6.03;;;;;;;17.67;100.00;98044.44;4953755;28;20794;-77
2023/09/17 05:48:10;;;;;;;7.37;6.53;;;;;;;17.77;100.00;98050.56;4954080;28;20325;-78
2023/09/17 05:50:37;;;;;;;7.13;5.63;;;;;;;17.81;100.00;98045.75;4953553;28;20220;-77
2023/09/17 05:53:04;;;;;;;7.13;5.73;;;;;;;17.87;100.00;98043.28;4953780;28;20231;-80
2023/09/17 05:55:30;;;;;;;6.53;5.60;;;;;;;17.97;100.00;98041.38;4954502;28;20223;-79
2023/09/17 05:57:57;;;;;;;5.97;5.37;;;;;;;18.02;100.00;98038.25;4954737;28;20575;-79
2023/09/17 06:00:23;;;;;;;6.97;6.17;;;;;;;18.05;100.00;98046.78;4954521;28;20212;-79
2023/09/17 06:02:51;;;;;;;5.80;5.30;;;;;;;18.11;100.00;98048.84;4954272;28;20693;-80
2023/09/17 06:05:18;;;;;;;6.73;5.77;;;;;;;18.24;100.00;98054.63;4954790;28;20211;-79
2023/09/17 06:07:45;;;;;;;7.00;5.77;;;;;;;18.32;100.00;98057.44;4954707;28;20211;-79
2023/09/17 06:10:11;;;;;;;6.40;5.70;;;;;;;18.45;100.00;98051.66;4954017;28;20226;-78
2023/09/17 06:12:38;;;;;;;6.10;5.50;;;;;;;18.53;100.00;98049.06;4954250;28;20734;-78
2023/09/17 06:15:05;;;;;;;6.90;5.67;;;;;;;18.59;100.00;98048.44;4954418;28;20227;-81
2023/09/17 06:17:32;;;;;;;6.40;5.63;;;;;;;18.67;100.00;98052.00;4954924;28;20214;-79
2023/09/17 06:20:00;;;;;;;6.70;5.53;;;;;;;18.78;100.00;98057.06;4954118;28;20215;-78
2023/09/17 06:22:26;;;;;;;6.50;5.80;;;;;;;18.88;100.00;98060.47;4959487;28;20231;-85
2023/09/17 06:24:53;;;;;;;7.10;5.80;;;;;;;18.89;100.00;98059.47;4961028;28;20204;-84
2023/09/17 06:27:19;;;;;;;6.80;6.00;;;;;;;18.90;100.00;98055.78;4960509;28;20216;-84
2023/09/17 06:29:46;;;;;;;6.13;5.53;;;;;;;18.95;100.00;98052.66;4957104;28;20219;-82
2023/09/17 06:32:12;;;;;;;6.57;5.10;;;;;;;18.99;100.00;98052.16;4956122;28;20237;-82
2023/09/17 06:34:39;;;;;;;6.70;5.50;;;;;;;19.09;100.00;98044.81;4956592;28;20243;-82
2023/09/17 06:37:07;;;;;;;6.50;5.70;;;;;;;19.23;100.00;98052.31;4956183;28;20219;-81
2023/09/17 06:39:36;;;;;;;6.50;5.77;;;;;;;19.33;100.00;98047.63;4955835;28;20604;-84
2023/09/17 06:42:03;;;;;;;6.67;5.57;;;;;;;19.48;100.00;98054.06;4958216;28;20231;-81
2023/09/17 06:44:29;;;;;;;7.50;5.53;;;;;;;19.57;100.00;98053.06;4960619;28;20665;-81
2023/09/17 06:46:56;;;;;;;6.73;5.20;;;;;;;19.73;100.00;98049.59;4960524;28;20274;-80
2023/09/17 06:49:22;;;;;;;7.30;5.82;;;;;;;19.90;100.00;98044.09;4959996;28;20547;-80
2023/09/17 06:51:50;;;;;;;7.07;5.50;;;;;;;20.05;100.00;98042.41;4959925;28;20231;-83
2023/09/17 06:54:18;;;;;;;6.27;5.17;;;;;;;20.15;100.00;98043.16;4959363;28;20238;-81
2023/09/17 06:56:44;;;;;;;6.77;5.37;;;;;;;20.30;100.00;98046.81;4959781;28;20237;-81
2023/09/17 06:59:11;;;;;;;6.13;5.30;;;;;;;20.40;100.00;98043.97;4959433;28;20212;-81
2023/09/17 07:01:39;;;;;;;5.57;5.03;;;;;;;20.55;100.00;98044.97;4958408;28;20249;-81
2023/09/17 07:04:06;;;;;;;5.90;5.30;;;;;;;20.72;100.00;98047.44;4958622;28;20356;-81
2023/09/17 07:06:32;;;;;;;8.80;5.60;;;;;;;20.73;100.00;98042.91;4958611;28;20698;-81
2023/09/17 07:08:59;;;;;;;6.03;5.40;;;;;;;20.86;100.00;98054.78;4958464;28;20586;-81
2023/09/17 07:11:26;;;;;;;6.23;5.20;;;;;;;20.97;100.00;98051.78;4958560;28;20235;-82
2023/09/17 07:13:53;;;;;;;6.22;5.38;;;;;;;21.05;100.00;98038.34;4958507;28;20470;-79
2023/09/17 07:16:20;;;;;;;5.77;5.17;;;;;;;21.16;100.00;98048.69;4958620;28;20215;-80
2023/09/17 07:18:46;;;;;;;5.17;4.67;;;;;;;21.17;100.00;98036.09;4958255;28;20539;-82
2023/09/17 07:21:13;;;;;;;5.40;4.90;;;;;;;21.18;100.00;98033.25;4957804;28;20231;-82
2023/09/17 07:23:39;;;;;;;5.10;4.60;;;;;;;21.33;100.00;98033.34;4957594;28;20219;-82
2023/09/17 07:26:06;;;;;;;5.97;4.60;;;;;;;21.34;99.87;98037.69;4957935;28;20218;-83
2023/09/17 07:28:34;;;;;;;5.17;4.67;;;;;;;21.39;99.98;98035.34;4957840;28;20207;-82
2023/09/17 07:31:00;;;;;;;6.00;5.40;;;;;;;21.39;100.00;98041.53;4957408;28;20245;-82
2023/09/17 07:33:27;;;;;;;5.87;5.00;;;;;;;21.45;99.53;98045.38;4958403;28;20215;-83
2023/09/17 07:35:54;;;;;;;5.27;4.60;;;;;;;21.48;99.33;98045.03;4960115;28;20208;-82
2023/09/17 07:38:20;;;;;;;5.23;4.73;;;;;;;21.52;98.63;98041.78;4960281;28;20222;-83
2023/09/17 07:40:47;;;;;;;5.40;4.87;;;;;;;21.61;97.31;98040.75;4960087;28;20515;-82
2023/09/17 07:43:14;;;;;;;5.97;4.73;;;;;;;21.70;97.47;98052.34;4958666;28;20222;-81
2023/09/17 07:45:41;;;;;;;5.00;4.50;;;;;;;21.76;96.82;98049.75;4957981;28;20222;-82
2023/09/17 07:48:08;;;;;;;5.00;4.50;;;;;;;21.80;95.46;98045.72;4957884;28;20207;-82
2023/09/17 07:50:34;;;;;;;6.40;4.50;;;;;;;21.77;93.09;98046.03;4957142;28;20212;-82
2023/09/17 07:53:02;;;;;;;4.73;4.33;;;;;;;21.84;92.91;98052.41;4956413;28;20219;-82
2023/09/17 07:55:29;;;;;;;5.27;4.50;;;;;;;21.84;92.84;98047.03;4955743;28;20231;-83
2023/09/17 07:57:56;;;;;;;6.37;4.73;;;;;;;21.94;92.51;98058.38;4956056;28;20674;-82
2023/09/17 08:00:22;;;;;;;5.43;4.53;;;;;;;22.10;91.47;98058.28;4955561;28;20223;-83
2023/09/17 08:02:50;;;;;;;5.07;4.57;;;;;;;22.24;90.26;98060.19;4956002;28;20211;-82
2023/09/17 08:05:17;;;;;;;4.60;4.20;;;;;;;22.42;88.71;98058.03;4955850;28;20734;-82
2023/09/17 08:07:45;;;;;;;4.83;4.17;;;;;;;22.54;87.24;98043.13;4956343;28;20215;-83
2023/09/17 08:10:12;;;;;;;4.10;3.70;;;;;;;22.67;85.83;98048.72;4956015;28;20223;-82
2023/09/17 08:12:38;;;;;;;4.43;4.00;;;;;;;22.81;84.23;98042.50;4956025;28;20247;-82
2023/09/17 08:15:06;;;;;;;4.30;3.90;;;;;;;22.85;82.95;98041.13;4955287;28;20236;-82
2023/09/17 08:17:32;;;;;;;5.23;4.73;;;;;;;22.94;82.89;98058.91;4955951;28;20215;-83
2023/09/17 08:20:01;;;;;;;4.30;3.90;;;;;;;23.01;82.60;98053.59;4941759;28;20230;-83
2023/09/17 08:22:29;;;;;;;3.97;3.53;;;;;;;23.09;82.29;98053.50;4932666;28;20232;-83
2023/09/17 08:24:55;;;;;;;5.50;3.60;;;;;;;23.17;82.43;98056.97;4937960;29;20239;-83
2023/09/17 08:27:22;;;;;;;4.23;3.83;;;;;;;23.29;81.87;98057.34;4956960;28;20234;-83
2023/09/17 08:29:49;;;;;;;4.10;3.70;;;;;;;23.44;81.52;98059.00;4956619;28;20306;-82
2023/09/17 08:32:16;;;;;;;5.33;4.00;;;;;;;23.52;80.05;98053.50;4956399;28;20239;-82
2023/09/17 08:34:42;;;;;;;4.07;3.67;;;;;;;23.56;79.58;98052.09;4955717;28;20326;-82
2023/09/17 08:37:10;;;;;;;4.67;3.97;;;;;;;23.57;78.95;98055.63;4955079;28;20212;-83
2023/09/17 08:39:36;;;;;;;4.43;3.93;;;;;;;23.61;79.20;98048.84;4927567;29;20450;-83
2023/09/17 08:42:04;;;;;;;4.57;4.17;;;;;;;23.64;78.89;98051.16;4918507;29;20242;-82
2023/09/17 08:44:35;;;;;;;4.30;3.80;;;;;;;23.87;77.56;98044.63;4918987;29;20299;-82
2023/09/17 08:47:02;;;;;;;5.63;3.83;;;;;;;23.94;77.14;98048.22;4921454;29;20386;-84
2023/09/17 08:49:29;;;;;;;4.03;3.63;;;;;;;24.01;76.92;98049.13;4922124;29;20217;-83
2023/09/17 08:51:57;;;;;;;4.33;3.83;;;;;;;24.12;76.00;98045.91;4920626;29;20755;-83
2023/09/17 08:54:29;;;;;;;4.37;3.70;;;;;;;24.19;76.27;98044.09;4922513;29;20343;-84
2023/09/17 08:57:00;;;;;;;4.70;3.90;;;;;;;24.28;75.85;98044.81;4922766;29;20193;-84
2023/09/17 08:59:29;;;;;;;4.53;3.83;;;;;;;24.40;74.38;98044.13;4923375;29;20680;-84
2023/09/17 09:01:57;;;;;;;4.13;3.73;;;;;;;24.50;74.22;98050.00;4922487;29;20251;-84
2023/09/17 09:04:24;;;;;;;4.80;3.83;;;;;;;24.57;73.90;98045.53;4921947;29;20246;-84
2023/09/17 09:06:52;;;;;;;4.10;3.70;;;;;;;24.68;73.11;98036.88;4922859;29;20219;-84
2023/09/17 09:09:21;;;;;;;3.80;3.47;;;;;;;24.79;72.26;98033.66;4923159;29;20217;-84
2023/09/17 09:11:49;;;;;;;3.90;3.50;;;;;;;24.87;71.15;98030.78;4922033;29;20304;-84
2023/09/17 09:14:16;;;;;;;3.67;3.37;;;;;;;24.97;70.96;98027.72;4923730;29;20488;-84
2023/09/17 09:16:44;;;;;;;3.83;3.43;;;;;;;25.10;70.44;98019.69;4924046;29;20304;-84
2023/09/17 09:19:11;;;;;;;3.90;3.50;;;;;;;25.20;68.79;98018.31;4923381;29;20584;-84
2023/09/17 09:21:37;;;;;;;5.03;3.47;;;;;;;25.27;68.25;98013.78;4922865;29;20237;-84
2023/09/17 09:24:04;;;;;;;3.87;3.30;;;;;;;25.31;67.43;98023.16;4924159;29;20215;-84
2023/09/17 09:26:34;;;;;;;3.83;3.43;;;;;;;25.35;67.20;98016.31;4924042;29;20234;-84
2023/09/17 09:29:04;;;;;;;4.50;3.70;;;;;;;25.38;67.31;98015.94;4924080;29;20217;-84
2023/09/17 09:31:31;;;;;;;3.70;3.00;;;;;;;25.40;67.08;98011.16;4923962;29;20233;-84
2023/09/17 09:33:58;;;;;;;4.30;3.50;;;;;;;25.42;64.94;97987.41;4921669;29;20219;-84
2023/09/17 09:36:26;;;;;;;3.17;2.90;;;;;;;25.48;65.63;98007.44;4922699;29;20213;-84
2023/09/17 09:38:53;;;;;;;3.87;3.23;;;;;;;25.58;65.59;97997.88;4923667;29;20232;-84
2023/09/17 09:41:21;;;;;;;4.03;3.00;;;;;;;25.65;65.84;98001.44;4921275;29;20232;-84
2023/09/17 09:43:48;;;;;;;4.87;3.30;;;;;;;25.77;64.74;97990.84;4923026;29;20209;-84
2023/09/17 09:46:16;;;;;;;3.93;3.47;;;;;;;25.83;64.03;97990.88;4925158;29;20213;-84
2023/09/17 09:48:45;;;;;;;3.87;3.07;;;;;;;25.87;63.92;97992.16;4925664;29;20213;-85
2023/09/17 09:51:11;;;;;;;3.10;2.80;;;;;;;26.00;62.19;97992.19;4924282;29;20262;-84
2023/09/17 09:53:38;;;;;;;3.60;3.30;;;;;;;26.14;61.40;97976.81;4923999;29;20541;-84
2023/09/17 09:56:05;;;;;;;3.90;2.97;;;;;;;26.29;61.69;97985.56;4924417;29;20232;-84
2023/09/17 09:58:31;;;;;;;4.57;3.20;;;;;;;26.38;61.57;97973.44;4924532;29;20541;-84
2023/09/17 10:01:03;;;;;;;3.60;3.17;;;;;;;26.48;59.82;97957.63;4923505;29;20240;-84
2023/09/17 10:03:31;;;;;;;2.80;2.60;;;;;;;26.56;59.21;97950.13;4924501;29;20216;-84
2023/09/17 10:06:03;;;;;;;4.60;3.93;;;;;;;26.73;58.65;97948.66;4925100;29;20676;-85
2023/09/17 10:08:30;;;;;;;3.87;2.63;;;;;;;26.87;57.26;97942.16;4925484;29;20197;-84
2023/09/17 10:10:57;;;;;;;2.53;2.28;;;;;;;26.99;56.33;97932.31;4924447;29;20239;-85
2023/09/17 10:13:24;;;;;;;5.82;2.78;;;;;;;27.11;55.10;97917.03;4924709;29;20217;-84
2023/09/17 10:15:51;;;;;;;4.00;2.63;;;;;;;27.27;55.64;97926.59;4924941;29;20233;-84
2023/09/17 10:18:19;;;;;;;3.70;2.67;;;;;;;27.31;55.25;97925.13;4929098;29;20234;-84
2023/09/17 10:20:50;;;;;;;4.22;2.60;;;;;;;27.41;55.24;97923.59;4928386;29;20233;-84
2023/09/17 10:23:17;;;;;;;3.72;2.70;;;;;;;27.56;53.36;97918.69;4928457;29;20215;-84
2023/09/17 10:25:46;;;;;;;4.40;2.90;;;;;;;27.71;53.29;97919.25;4929493;29;20649;-84
2023/09/17 10:28:14;;;;;;;2.67;2.45;;;;;;;27.73;53.41;97925.28;4927641;29;20228;-84
2023/09/17 10:30:43;;;;;;;6.90;2.90;;;;;;;27.75;53.63;97925.94;4927208;29;20233;-85
2023/09/17 10:33:13;;;;;;;5.32;2.88;;;;;;;27.69;53.56;97921.38;4927979;29;20223;-84
2023/09/17 10:35:41;;;;;;;2.88;2.60;;;;;;;27.80;54.26;97923.38;4927448;29;20240;-84
2023/09/17 10:38:10;;;;;;;3.38;2.63;;;;;;;27.89;55.00;97924.81;4927943;29;20209;-85
2023/09/17 10:40:38;;;;;;;4.32;2.58;;;;;;;27.94;53.75;97920.38;4926906;29;20213;-84
2023/09/17 10:43:06;;;;;;;3.00;2.40;;;;;;;28.01;53.28;97912.19;4926268;29;20706;-83
2023/09/17 10:45:35;;;;;;;3.63;2.20;;;;;;;27.96;52.35;97912.00;4924642;29;20256;-83
2023/09/17 10:48:03;;;;;;;3.35;2.53;;;;;;;27.94;52.72;97904.06;4925124;29;20231;-85
2023/09/17 10:50:34;;;;;;;3.38;2.35;;;;;;;27.96;51.84;97917.44;4924226;29;20246;-82
2023/09/17 10:53:01;;;;;;;3.45;2.40;;;;;;;28.05;51.94;97921.53;4926488;29;20216;-84
2023/09/17 10:55:34;;;;;;;3.95;2.80;;;;;;;28.12;51.98;97911.47;4927591;29;20228;-84
2023/09/17 10:58:13;;;;;;;5.20;2.60;;;;;;;28.19;51.60;97912.25;4928420;29;20312;-85
2023/09/17 11:00:42;;;;;;;4.78;2.60;;;;;;;28.23;51.92;97911.56;4927835;29;20213;-84
2023/09/17 11:03:12;;;;;;;3.90;2.50;;;;;;;28.26;51.43;97916.53;4927911;29;20308;-84
2023/09/17 11:05:39;;;;;;;3.35;2.60;;;;;;;28.23;50.80;97911.56;4927477;29;20299;-85
2023/09/17 11:08:08;;;;;;;4.15;2.70;;;;;;;28.30;50.46;97897.94;4928408;29;20214;-84
2023/09/17 11:10:41;;;;;;;3.65;2.70;;;;;;;28.39;50.47;97900.19;4927250;29;20244;-84
2023/09/17 11:13:11;;;;;;;3.97;2.60;;;;;;;28.51;50.68;97905.69;4927229;29;20220;-84
2023/09/17 11:15:38;;;;;;;4.53;2.55;;;;;;;28.57;50.67;97902.94;4929075;29;20229;-84
2023/09/17 11:18:07;;;;;;;5.32;2.58;;;;;;;28.66;50.94;97915.16;4928848;29;20209;-84
2023/09/17 11:20:35;;;;;;;3.08;2.50;;;;;;;28.75;49.78;97896.66;4928259;29;20217;-84
2023/09/17 11:23:02;;;;;;;4.95;2.72;;;;;;;28.89;50.49;97909.06;4928541;29;20212;-84
2023/09/17 11:25:34;;;;;;;3.42;2.40;;;;;;;29.01;49.22;97896.38;4926233;29;20209;-85
2023/09/17 11:28:11;;;;;;;3.45;2.20;;;;;;;29.06;49.11;97900.09;4926312;29;20672;-85
2023/09/17 11:30:57;;;;;;;4.97;2.50;;;;;;;29.16;48.61;97897.66;4924819;29;20303;-85